sensor_id;sensor_type;location;lat;lon;timestamp;P1;durP1;ratioP1;P2;durP2;ratioP2
70547;SDS011;58099;43.406;3.698;2023-02-01T00:01:51;3.50;;;0.70;;
70547;SDS011;58099;43.406;3.698;2023-02-01T00:04:17;3.07;;;0.50;;
70547;SDS011;58099;43.406;3.698;2023-02-01T00:06:43;3.25;;;0.50;;
70547;SDS011;58099;43.406;3.698;2023-02-01T00:09:09;3.00;;;0.40;;
70547;SDS011;58099;43.406;3.698;2023-02-01T00:11:35;2.90;;;0.40;;
70547;SDS011;58099;43.406;3.698;2023-02-01T00:14:01;2.40;;;0.40;;
70547;SDS011;58099;43.406;3.698;2023-02-01T00:16:28;2.80;;;0.40;;
70547;SDS011;58099;43.406;3.698;2023-02-01T00:19:07;2.83;;;0.55;;
70547;SDS011;58099;43.406;3.698;2023-02-01T00:21:35;2.85;;;0.40;;
70547;SDS011;58099;43.406;3.698;2023-02-01T00:24:01;2.50;;;0.30;;
70547;SDS011;58099;43.406;3.698;2023-02-01T00:28:53;3.37;;;0.40;;
70547;SDS011;58099;43.406;3.698;2023-02-01T00:31:19;2.60;;;0.40;;
70547;SDS011;58099;43.406;3.698;2023-02-01T00:33:48;3.50;;;0.43;;
70547;SDS011;58099;43.406;3.698;2023-02-01T00:36:15;2.45;;;0.40;;
70547;SDS011;58099;43.406;3.698;2023-02-01T00:38:41;3.15;;;0.40;;
70547;SDS011;58099;43.406;3.698;2023-02-01T00:41:10;3.47;;;0.30;;
70547;SDS011;58099;43.406;3.698;2023-02-01T00:43:36;2.33;;;0.30;;
70547;SDS011;58099;43.406;3.698;2023-02-01T00:46:02;3.20;;;0.40;;
70547;SDS011;58099;43.406;3.698;2023-02-01T00:48:28;2.50;;;0.40;;
70547;SDS011;58099;43.406;3.698;2023-02-01T00:50:58;2.95;;;0.40;;
70547;SDS011;58099;43.406;3.698;2023-02-01T00:53:24;3.00;;;0.40;;
70547;SDS011;58099;43.406;3.698;2023-02-01T00:55:50;2.97;;;0.35;;
70547;SDS011;58099;43.406;3.698;2023-02-01T00:58:16;2.75;;;0.45;;
70547;SDS011;58099;43.406;3.698;2023-02-01T01:00:42;3.05;;;0.30;;
70547;SDS011;58099;43.406;3.698;2023-02-01T01:03:08;3.15;;;0.50;;
70547;SDS011;58099;43.406;3.698;2023-02-01T01:05:47;2.67;;;0.30;;
70547;SDS011;58099;43.406;3.698;2023-02-01T01:08:14;2.70;;;0.40;;
70547;SDS011;58099;43.406;3.698;2023-02-01T01:10:40;2.83;;;0.50;;
70547;SDS011;58099;43.406;3.698;2023-02-01T01:13:07;3.03;;;0.40;;
70547;SDS011;58099;43.406;3.698;2023-02-01T01:15:37;3.00;;;0.50;;
70547;SDS011;58099;43.406;3.698;2023-02-01T01:18:03;3.20;;;0.30;;
70547;SDS011;58099;43.406;3.698;2023-02-01T01:20:29;2.42;;;0.35;;
70547;SDS011;58099;43.406;3.698;2023-02-01T01:22:55;3.30;;;0.40;;
70547;SDS011;58099;43.406;3.698;2023-02-01T01:25:21;2.40;;;0.30;;
70547;SDS011;58099;43.406;3.698;2023-02-01T01:27:47;3.17;;;0.30;;
70547;SDS011;58099;43.406;3.698;2023-02-01T01:30:13;2.97;;;0.40;;
70547;SDS011;58099;43.406;3.698;2023-02-01T01:32:40;3.22;;;0.30;;
70547;SDS011;58099;43.406;3.698;2023-02-01T01:35:10;2.85;;;0.40;;
70547;SDS011;58099;43.406;3.698;2023-02-01T01:37:38;2.45;;;0.30;;
70547;SDS011;58099;43.406;3.698;2023-02-01T01:40:06;2.35;;;0.40;;
70547;SDS011;58099;43.406;3.698;2023-02-01T01:42:41;2.53;;;0.30;;
70547;SDS011;58099;43.406;3.698;2023-02-01T01:47:37;2.50;;;0.40;;
70547;SDS011;58099;43.406;3.698;2023-02-01T01:50:05;3.72;;;0.38;;
70547;SDS011;58099;43.406;3.698;2023-02-01T01:52:32;2.88;;;0.30;;
70547;SDS011;58099;43.406;3.698;2023-02-01T01:54:58;2.30;;;0.30;;
70547;SDS011;58099;43.406;3.698;2023-02-01T01:57:31;3.10;;;0.30;;
70547;SDS011;58099;43.406;3.698;2023-02-01T02:00:00;2.80;;;0.30;;
70547;SDS011;58099;43.406;3.698;2023-02-01T02:02:27;3.00;;;0.40;;
70547;SDS011;58099;43.406;3.698;2023-02-01T02:04:54;2.55;;;0.30;;
70547;SDS011;58099;43.406;3.698;2023-02-01T02:07:21;2.30;;;0.30;;
70547;SDS011;58099;43.406;3.698;2023-02-01T02:09:48;2.20;;;0.30;;
70547;SDS011;58099;43.406;3.698;2023-02-01T02:12:16;2.50;;;0.40;;
70547;SDS011;58099;43.406;3.698;2023-02-01T02:14:42;2.85;;;0.30;;
70547;SDS011;58099;43.406;3.698;2023-02-01T02:24:44;2.80;;;0.38;;
70547;SDS011;58099;43.406;3.698;2023-02-01T02:35:35;2.63;;;0.38;;
70547;SDS011;58099;43.406;3.698;2023-02-01T02:37:55;2.80;;;0.30;;
70547;SDS011;58099;43.406;3.698;2023-02-01T08:09:13;2.40;;;0.40;;
70547;SDS011;58099;43.406;3.698;2023-02-01T08:11:39;3.25;;;0.47;;
70547;SDS011;58099;43.406;3.698;2023-02-01T08:14:09;2.47;;;0.43;;
70547;SDS011;58099;43.406;3.698;2023-02-01T08:16:35;3.20;;;0.43;;
70547;SDS011;58099;43.406;3.698;2023-02-01T08:19:02;3.42;;;0.38;;
70547;SDS011;58099;43.406;3.698;2023-02-01T08:21:29;3.30;;;0.30;;
70547;SDS011;58099;43.406;3.698;2023-02-01T08:24:04;2.00;;;0.20;;
70547;SDS011;58099;43.406;3.698;2023-02-01T08:26:31;2.30;;;0.30;;
70547;SDS011;58099;43.406;3.698;2023-02-01T08:28:58;3.47;;;0.30;;
70547;SDS011;58099;43.406;3.698;2023-02-01T08:31:25;2.58;;;0.30;;
70547;SDS011;58099;43.406;3.698;2023-02-01T08:33:53;3.70;;;0.40;;
70547;SDS011;58099;43.406;3.698;2023-02-01T08:36:19;3.22;;;0.38;;
70547;SDS011;58099;43.406;3.698;2023-02-01T08:38:45;3.13;;;0.40;;
70547;SDS011;58099;43.406;3.698;2023-02-01T08:41:16;3.28;;;0.30;;
70547;SDS011;58099;43.406;3.698;2023-02-01T08:43:42;4.13;;;0.77;;
70547;SDS011;58099;43.406;3.698;2023-02-01T08:46:09;2.50;;;0.40;;
70547;SDS011;58099;43.406;3.698;2023-02-01T08:48:36;2.63;;;0.22;;
70547;SDS011;58099;43.406;3.698;2023-02-01T08:51:09;4.10;;;0.40;;
70547;SDS011;58099;43.406;3.698;2023-02-01T08:53:36;2.97;;;0.30;;
70547;SDS011;58099;43.406;3.698;2023-02-01T08:56:03;2.95;;;0.50;;
70547;SDS011;58099;43.406;3.698;2023-02-01T08:58:29;2.03;;;0.30;;
70547;SDS011;58099;43.406;3.698;2023-02-01T09:00:55;3.58;;;0.47;;
70547;SDS011;58099;43.406;3.698;2023-02-01T09:03:21;2.10;;;0.20;;
70547;SDS011;58099;43.406;3.698;2023-02-01T09:05:47;2.15;;;0.30;;
70547;SDS011;58099;43.406;3.698;2023-02-01T09:08:13;1.73;;;0.30;;
70547;SDS011;58099;43.406;3.698;2023-02-01T09:10:40;2.00;;;0.30;;
70547;SDS011;58099;43.406;3.698;2023-02-01T09:13:07;3.13;;;0.30;;
70547;SDS011;58099;43.406;3.698;2023-02-01T09:15:33;2.58;;;0.38;;
70547;SDS011;58099;43.406;3.698;2023-02-01T09:17:59;2.35;;;0.35;;
70547;SDS011;58099;43.406;3.698;2023-02-01T09:20:25;2.35;;;0.30;;
70547;SDS011;58099;43.406;3.698;2023-02-01T09:22:52;2.30;;;0.30;;
70547;SDS011;58099;43.406;3.698;2023-02-01T09:25:18;3.30;;;0.30;;
70547;SDS011;58099;43.406;3.698;2023-02-01T09:27:44;3.95;;;0.30;;
70547;SDS011;58099;43.406;3.698;2023-02-01T09:30:10;3.80;;;0.40;;
70547;SDS011;58099;43.406;3.698;2023-02-01T09:32:37;3.08;;;0.60;;
70547;SDS011;58099;43.406;3.698;2023-02-01T09:35:03;3.70;;;0.50;;
70547;SDS011;58099;43.406;3.698;2023-02-01T09:37:29;3.08;;;0.28;;
70547;SDS011;58099;43.406;3.698;2023-02-01T09:39:55;2.53;;;0.30;;
70547;SDS011;58099;43.406;3.698;2023-02-01T09:47:20;2.33;;;0.30;;
70547;SDS011;58099;43.406;3.698;2023-02-01T09:52:28;4.53;;;0.30;;
70547;SDS011;58099;43.406;3.698;2023-02-01T09:55:01;5.28;;;0.30;;
70547;SDS011;58099;43.406;3.698;2023-02-01T09:58:11;2.42;;;0.30;;
70547;SDS011;58099;43.406;3.698;2023-02-01T10:00:27;3.27;;;0.50;;
70547;SDS011;58099;43.406;3.698;2023-02-01T10:02:55;2.25;;;0.30;;
70547;SDS011;58099;43.406;3.698;2023-02-01T10:05:34;2.22;;;0.20;;
70547;SDS011;58099;43.406;3.698;2023-02-01T10:08:07;3.03;;;0.30;;
70547;SDS011;58099;43.406;3.698;2023-02-01T10:10:43;2.22;;;0.20;;
70547;SDS011;58099;43.406;3.698;2023-02-01T10:13:18;2.57;;;0.30;;
70547;SDS011;58099;43.406;3.698;2023-02-01T10:21:19;2.65;;;0.50;;
70547;SDS011;58099;43.406;3.698;2023-02-01T10:26:35;3.30;;;0.40;;
70547;SDS011;58099;43.406;3.698;2023-02-01T10:29:04;3.20;;;0.50;;
70547;SDS011;58099;43.406;3.698;2023-02-01T10:31:31;4.13;;;0.50;;
70547;SDS011;58099;43.406;3.698;2023-02-01T10:34:00;4.05;;;0.50;;
70547;SDS011;58099;43.406;3.698;2023-02-01T10:36:34;2.85;;;0.40;;
70547;SDS011;58099;43.406;3.698;2023-02-01T10:39:02;3.77;;;0.60;;
70547;SDS011;58099;43.406;3.698;2023-02-01T10:41:38;2.92;;;0.50;;
70547;SDS011;58099;43.406;3.698;2023-02-01T10:44:12;3.95;;;0.52;;
70547;SDS011;58099;43.406;3.698;2023-02-01T10:46:39;3.67;;;0.60;;
70547;SDS011;58099;43.406;3.698;2023-02-01T10:49:09;3.45;;;0.40;;
70547;SDS011;58099;43.406;3.698;2023-02-01T10:51:42;4.23;;;0.93;;
70547;SDS011;58099;43.406;3.698;2023-02-01T10:54:19;3.13;;;0.55;;
70547;SDS011;58099;43.406;3.698;2023-02-01T10:56:46;2.80;;;0.70;;
70547;SDS011;58099;43.406;3.698;2023-02-01T10:59:19;4.43;;;0.63;;
70547;SDS011;58099;43.406;3.698;2023-02-01T11:01:47;4.55;;;1.05;;
70547;SDS011;58099;43.406;3.698;2023-02-01T11:04:14;3.43;;;0.70;;
70547;SDS011;58099;43.406;3.698;2023-02-01T11:06:45;4.00;;;0.60;;
70547;SDS011;58099;43.406;3.698;2023-02-01T11:09:22;2.80;;;0.55;;
70547;SDS011;58099;43.406;3.698;2023-02-01T11:14:19;3.40;;;0.70;;
70547;SDS011;58099;43.406;3.698;2023-02-01T11:16:49;3.17;;;0.60;;
70547;SDS011;58099;43.406;3.698;2023-02-01T11:19:16;3.10;;;0.70;;
70547;SDS011;58099;43.406;3.698;2023-02-01T11:21:42;3.20;;;0.57;;
70547;SDS011;58099;43.406;3.698;2023-02-01T11:24:31;4.10;;;0.70;;
70547;SDS011;58099;43.406;3.698;2023-02-01T11:26:56;3.65;;;0.90;;
70547;SDS011;58099;43.406;3.698;2023-02-01T11:29:23;3.93;;;0.60;;
70547;SDS011;58099;43.406;3.698;2023-02-01T11:31:55;4.18;;;0.70;;
70547;SDS011;58099;43.406;3.698;2023-02-01T11:34:22;3.65;;;0.70;;
70547;SDS011;58099;43.406;3.698;2023-02-01T11:36:50;4.40;;;0.77;;
70547;SDS011;58099;43.406;3.698;2023-02-01T11:39:25;3.28;;;0.77;;
70547;SDS011;58099;43.406;3.698;2023-02-01T11:41:59;3.77;;;0.63;;
70547;SDS011;58099;43.406;3.698;2023-02-01T11:44:30;3.60;;;0.70;;
70547;SDS011;58099;43.406;3.698;2023-02-01T11:49:38;3.60;;;0.70;;
70547;SDS011;58099;43.406;3.698;2023-02-01T12:05:11;4.07;;;0.80;;
70547;SDS011;58099;43.406;3.698;2023-02-01T12:10:29;3.63;;;0.80;;
70547;SDS011;58099;43.406;3.698;2023-02-01T12:21:06;3.80;;;0.80;;
70547;SDS011;58099;43.406;3.698;2023-02-01T12:23:35;3.30;;;0.80;;
70547;SDS011;58099;43.406;3.698;2023-02-01T12:34:29;3.43;;;0.70;;
70547;SDS011;58099;43.406;3.698;2023-02-01T12:39:39;3.38;;;0.70;;
70547;SDS011;58099;43.406;3.698;2023-02-01T12:42:19;4.15;;;0.90;;
70547;SDS011;58099;43.406;3.698;2023-02-01T12:52:06;3.60;;;0.60;;
70547;SDS011;58099;43.406;3.698;2023-02-01T12:57:16;3.22;;;0.57;;
70547;SDS011;58099;43.406;3.698;2023-02-01T13:05:31;4.53;;;0.93;;
70547;SDS011;58099;43.406;3.698;2023-02-01T13:08:02;3.03;;;0.70;;
70547;SDS011;58099;43.406;3.698;2023-02-01T13:12:59;3.00;;;0.77;;
70547;SDS011;58099;43.406;3.698;2023-02-01T13:15:28;3.40;;;0.70;;
70547;SDS011;58099;43.406;3.698;2023-02-01T13:17:57;3.88;;;0.80;;
70547;SDS011;58099;43.406;3.698;2023-02-01T13:20:41;3.38;;;0.70;;
70547;SDS011;58099;43.406;3.698;2023-02-01T13:23:13;4.07;;;0.93;;
70547;SDS011;58099;43.406;3.698;2023-02-01T13:25:44;5.53;;;0.63;;
70547;SDS011;58099;43.406;3.698;2023-02-01T13:28:14;4.22;;;0.73;;
70547;SDS011;58099;43.406;3.698;2023-02-01T13:40:45;3.00;;;0.50;;
70547;SDS011;58099;43.406;3.698;2023-02-01T13:43:19;2.70;;;0.50;;
70547;SDS011;58099;43.406;3.698;2023-02-01T13:45:50;3.83;;;0.80;;
70547;SDS011;58099;43.406;3.698;2023-02-01T13:48:19;3.20;;;0.77;;
70547;SDS011;58099;43.406;3.698;2023-02-01T13:50:49;4.10;;;0.80;;
70547;SDS011;58099;43.406;3.698;2023-02-01T13:53:17;3.85;;;0.57;;
70547;SDS011;58099;43.406;3.698;2023-02-01T13:55:45;3.42;;;0.70;;
70547;SDS011;58099;43.406;3.698;2023-02-01T13:58:17;3.00;;;0.60;;
70547;SDS011;58099;43.406;3.698;2023-02-01T14:00:44;3.10;;;0.60;;
70547;SDS011;58099;43.406;3.698;2023-02-01T14:03:12;3.37;;;0.60;;
70547;SDS011;58099;43.406;3.698;2023-02-01T14:13:30;4.30;;;0.70;;
70547;SDS011;58099;43.406;3.698;2023-02-01T14:23:40;3.53;;;0.60;;
70547;SDS011;58099;43.406;3.698;2023-02-01T14:26:07;4.22;;;0.90;;
70547;SDS011;58099;43.406;3.698;2023-02-01T14:28:35;4.43;;;0.90;;
70547;SDS011;58099;43.406;3.698;2023-02-01T14:31:06;3.10;;;0.47;;
70547;SDS011;58099;43.406;3.698;2023-02-01T14:33:40;4.13;;;0.57;;
70547;SDS011;58099;43.406;3.698;2023-02-01T14:36:11;5.28;;;0.90;;
70547;SDS011;58099;43.406;3.698;2023-02-01T14:38:37;5.43;;;1.10;;
70547;SDS011;58099;43.406;3.698;2023-02-01T14:41:18;3.33;;;0.80;;
70547;SDS011;58099;43.406;3.698;2023-02-01T14:44:35;4.80;;;0.88;;
70547;SDS011;58099;43.406;3.698;2023-02-01T14:49:20;3.58;;;0.70;;
70547;SDS011;58099;43.406;3.698;2023-02-01T14:51:46;3.30;;;0.60;;
70547;SDS011;58099;43.406;3.698;2023-02-01T14:54:13;2.73;;;0.70;;
70547;SDS011;58099;43.406;3.698;2023-02-01T14:56:39;3.53;;;0.60;;
70547;SDS011;58099;43.406;3.698;2023-02-01T14:59:07;5.47;;;0.80;;
70547;SDS011;58099;43.406;3.698;2023-02-01T15:01:35;3.40;;;0.80;;
70547;SDS011;58099;43.406;3.698;2023-02-01T15:04:11;3.60;;;0.70;;
70547;SDS011;58099;43.406;3.698;2023-02-01T15:06:43;4.00;;;0.70;;
70547;SDS011;58099;43.406;3.698;2023-02-01T15:11:55;5.90;;;0.80;;
70547;SDS011;58099;43.406;3.698;2023-02-01T15:14:21;3.80;;;0.80;;
70547;SDS011;58099;43.406;3.698;2023-02-01T15:16:47;3.13;;;0.50;;
70547;SDS011;58099;43.406;3.698;2023-02-01T15:19:18;12.60;;;1.07;;
70547;SDS011;58099;43.406;3.698;2023-02-01T15:21:47;4.15;;;0.75;;
70547;SDS011;58099;43.406;3.698;2023-02-01T15:24:29;4.28;;;0.60;;
70547;SDS011;58099;43.406;3.698;2023-02-01T15:27:01;3.13;;;0.40;;
70547;SDS011;58099;43.406;3.698;2023-02-01T15:29:28;3.67;;;0.80;;
70547;SDS011;58099;43.406;3.698;2023-02-01T15:31:57;3.30;;;0.60;;
70547;SDS011;58099;43.406;3.698;2023-02-01T15:34:33;2.40;;;0.40;;
70547;SDS011;58099;43.406;3.698;2023-02-01T15:37:13;3.35;;;0.57;;
70547;SDS011;58099;43.406;3.698;2023-02-01T15:40:02;3.40;;;0.50;;
70547;SDS011;58099;43.406;3.698;2023-02-01T15:42:26;4.13;;;0.50;;
70547;SDS011;58099;43.406;3.698;2023-02-01T15:44:52;5.10;;;0.53;;
70547;SDS011;58099;43.406;3.698;2023-02-01T15:47:20;4.20;;;0.60;;
70547;SDS011;58099;43.406;3.698;2023-02-01T15:49:53;3.25;;;0.52;;
70547;SDS011;58099;43.406;3.698;2023-02-01T15:52:34;5.50;;;1.92;;
70547;SDS011;58099;43.406;3.698;2023-02-01T15:55:01;3.13;;;0.50;;
70547;SDS011;58099;43.406;3.698;2023-02-01T15:57:29;3.67;;;0.63;;
70547;SDS011;58099;43.406;3.698;2023-02-01T15:59:59;3.53;;;0.70;;
70547;SDS011;58099;43.406;3.698;2023-02-01T16:02:27;2.80;;;0.43;;
70547;SDS011;58099;43.406;3.698;2023-02-01T16:04:54;4.03;;;0.77;;
70547;SDS011;58099;43.406;3.698;2023-02-01T16:07:25;4.10;;;0.70;;
70547;SDS011;58099;43.406;3.698;2023-02-01T16:09:56;3.77;;;0.70;;
70547;SDS011;58099;43.406;3.698;2023-02-01T16:14:55;4.55;;;1.08;;
70547;SDS011;58099;43.406;3.698;2023-02-01T16:17:21;4.65;;;0.80;;
70547;SDS011;58099;43.406;3.698;2023-02-01T16:19:47;3.85;;;0.80;;
70547;SDS011;58099;43.406;3.698;2023-02-01T16:22:13;3.93;;;0.90;;
70547;SDS011;58099;43.406;3.698;2023-02-01T16:24:39;4.38;;;0.60;;
70547;SDS011;58099;43.406;3.698;2023-02-01T16:27:05;3.83;;;0.80;;
70547;SDS011;58099;43.406;3.698;2023-02-01T16:29:32;3.58;;;0.70;;
70547;SDS011;58099;43.406;3.698;2023-02-01T16:31:58;3.70;;;0.90;;
70547;SDS011;58099;43.406;3.698;2023-02-01T16:34:24;3.90;;;0.77;;
70547;SDS011;58099;43.406;3.698;2023-02-01T16:36:51;4.13;;;0.80;;
70547;SDS011;58099;43.406;3.698;2023-02-01T16:39:19;3.90;;;0.80;;
70547;SDS011;58099;43.406;3.698;2023-02-01T16:41:45;3.95;;;0.73;;
70547;SDS011;58099;43.406;3.698;2023-02-01T16:44:11;4.30;;;0.98;;
70547;SDS011;58099;43.406;3.698;2023-02-01T16:46:43;4.13;;;1.10;;
70547;SDS011;58099;43.406;3.698;2023-02-01T16:51:42;4.53;;;1.00;;
70547;SDS011;58099;43.406;3.698;2023-02-01T16:54:08;4.40;;;1.08;;
70547;SDS011;58099;43.406;3.698;2023-02-01T16:56:35;5.30;;;1.23;;
70547;SDS011;58099;43.406;3.698;2023-02-01T16:59:01;4.97;;;1.13;;
70547;SDS011;58099;43.406;3.698;2023-02-01T17:01:28;4.32;;;1.00;;
70547;SDS011;58099;43.406;3.698;2023-02-01T17:03:54;4.80;;;1.58;;
70547;SDS011;58099;43.406;3.698;2023-02-01T17:06:21;4.82;;;1.10;;
70547;SDS011;58099;43.406;3.698;2023-02-01T17:08:52;3.67;;;0.85;;
70547;SDS011;58099;43.406;3.698;2023-02-01T17:11:19;4.43;;;1.30;;
70547;SDS011;58099;43.406;3.698;2023-02-01T17:13:45;4.45;;;1.17;;
70547;SDS011;58099;43.406;3.698;2023-02-01T17:18:44;5.10;;;1.20;;
70547;SDS011;58099;43.406;3.698;2023-02-01T17:21:12;4.38;;;0.90;;
70547;SDS011;58099;43.406;3.698;2023-02-01T17:23:38;3.73;;;0.97;;
70547;SDS011;58099;43.406;3.698;2023-02-01T17:26:07;4.00;;;1.00;;
70547;SDS011;58099;43.406;3.698;2023-02-01T17:28:34;3.90;;;0.85;;
70547;SDS011;58099;43.406;3.698;2023-02-01T17:31:00;4.45;;;1.20;;
70547;SDS011;58099;43.406;3.698;2023-02-01T17:33:30;4.32;;;1.15;;
70547;SDS011;58099;43.406;3.698;2023-02-01T17:35:57;6.47;;;1.73;;
70547;SDS011;58099;43.406;3.698;2023-02-01T17:38:23;4.60;;;1.50;;
70547;SDS011;58099;43.406;3.698;2023-02-01T17:40:49;5.57;;;2.00;;
70547;SDS011;58099;43.406;3.698;2023-02-01T17:43:17;6.45;;;2.50;;
70547;SDS011;58099;43.406;3.698;2023-02-01T17:45:45;5.00;;;1.60;;
70547;SDS011;58099;43.406;3.698;2023-02-01T17:48:15;4.40;;;1.67;;
70547;SDS011;58099;43.406;3.698;2023-02-01T17:50:42;4.45;;;1.40;;
70547;SDS011;58099;43.406;3.698;2023-02-01T17:53:09;4.35;;;1.10;;
70547;SDS011;58099;43.406;3.698;2023-02-01T17:55:37;4.57;;;1.02;;
70547;SDS011;58099;43.406;3.698;2023-02-01T17:58:03;4.90;;;1.40;;
70547;SDS011;58099;43.406;3.698;2023-02-01T18:00:29;4.33;;;1.20;;
70547;SDS011;58099;43.406;3.698;2023-02-01T18:02:55;3.92;;;0.88;;
70547;SDS011;58099;43.406;3.698;2023-02-01T18:05:23;4.13;;;1.08;;
70547;SDS011;58099;43.406;3.698;2023-02-01T18:07:51;4.35;;;0.90;;
70547;SDS011;58099;43.406;3.698;2023-02-01T18:10:17;3.60;;;0.65;;
70547;SDS011;58099;43.406;3.698;2023-02-01T18:12:43;3.57;;;0.63;;
70547;SDS011;58099;43.406;3.698;2023-02-01T18:15:20;3.45;;;0.80;;
70547;SDS011;58099;43.406;3.698;2023-02-01T18:17:46;3.25;;;0.70;;
70547;SDS011;58099;43.406;3.698;2023-02-01T18:20:16;3.80;;;0.90;;
70547;SDS011;58099;43.406;3.698;2023-02-01T18:22:43;3.72;;;0.70;;
70547;SDS011;58099;43.406;3.698;2023-02-01T18:27:41;5.38;;;2.00;;
70547;SDS011;58099;43.406;3.698;2023-02-01T18:30:08;4.50;;;0.90;;
70547;SDS011;58099;43.406;3.698;2023-02-01T18:32:34;4.30;;;0.73;;
70547;SDS011;58099;43.406;3.698;2023-02-01T18:35:00;3.90;;;0.63;;
70547;SDS011;58099;43.406;3.698;2023-02-01T18:37:26;3.83;;;0.93;;
70547;SDS011;58099;43.406;3.698;2023-02-01T18:39:52;5.15;;;0.90;;
70547;SDS011;58099;43.406;3.698;2023-02-01T18:42:18;3.13;;;0.63;;
70547;SDS011;58099;43.406;3.698;2023-02-01T18:44:44;4.35;;;1.30;;
70547;SDS011;58099;43.406;3.698;2023-02-01T18:47:10;4.75;;;1.17;;
70547;SDS011;58099;43.406;3.698;2023-02-01T18:49:36;4.47;;;1.40;;
70547;SDS011;58099;43.406;3.698;2023-02-01T18:52:03;3.58;;;0.80;;
70547;SDS011;58099;43.406;3.698;2023-02-01T18:54:30;4.15;;;0.60;;
70547;SDS011;58099;43.406;3.698;2023-02-01T18:56:56;4.00;;;1.13;;
70547;SDS011;58099;43.406;3.698;2023-02-01T18:59:22;4.55;;;1.10;;
70547;SDS011;58099;43.406;3.698;2023-02-01T19:01:48;4.07;;;1.13;;
70547;SDS011;58099;43.406;3.698;2023-02-01T19:04:14;3.67;;;1.05;;
70547;SDS011;58099;43.406;3.698;2023-02-01T19:06:40;3.42;;;1.00;;
70547;SDS011;58099;43.406;3.698;2023-02-01T19:09:06;4.53;;;1.20;;
70547;SDS011;58099;43.406;3.698;2023-02-01T19:11:33;4.63;;;1.27;;
70547;SDS011;58099;43.406;3.698;2023-02-01T19:13:59;4.03;;;1.10;;
70547;SDS011;58099;43.406;3.698;2023-02-01T19:16:25;4.25;;;1.20;;
70547;SDS011;58099;43.406;3.698;2023-02-01T19:18:51;6.45;;;2.47;;
70547;SDS011;58099;43.406;3.698;2023-02-01T19:21:17;4.63;;;1.00;;
70547;SDS011;58099;43.406;3.698;2023-02-01T19:23:43;3.80;;;0.75;;
70547;SDS011;58099;43.406;3.698;2023-02-01T19:26:13;3.90;;;1.10;;
70547;SDS011;58099;43.406;3.698;2023-02-01T19:28:40;3.80;;;1.13;;
70547;SDS011;58099;43.406;3.698;2023-02-01T19:31:08;3.28;;;0.70;;
70547;SDS011;58099;43.406;3.698;2023-02-01T19:33:34;3.67;;;0.85;;
70547;SDS011;58099;43.406;3.698;2023-02-01T19:36:01;4.03;;;0.90;;
70547;SDS011;58099;43.406;3.698;2023-02-01T19:38:29;3.43;;;0.70;;
70547;SDS011;58099;43.406;3.698;2023-02-01T19:40:55;3.38;;;0.82;;
70547;SDS011;58099;43.406;3.698;2023-02-01T19:43:22;3.42;;;0.68;;
70547;SDS011;58099;43.406;3.698;2023-02-01T19:45:48;4.18;;;0.60;;
70547;SDS011;58099;43.406;3.698;2023-02-01T19:48:14;3.50;;;0.60;;
70547;SDS011;58099;43.406;3.698;2023-02-01T19:50:41;3.27;;;0.60;;
70547;SDS011;58099;43.406;3.698;2023-02-01T19:53:08;3.60;;;0.60;;
70547;SDS011;58099;43.406;3.698;2023-02-01T19:55:34;4.40;;;0.80;;
70547;SDS011;58099;43.406;3.698;2023-02-01T19:58:00;3.83;;;0.80;;
70547;SDS011;58099;43.406;3.698;2023-02-01T20:00:29;4.45;;;0.77;;
70547;SDS011;58099;43.406;3.698;2023-02-01T20:02:55;3.93;;;0.90;;
70547;SDS011;58099;43.406;3.698;2023-02-01T20:05:21;3.65;;;0.90;;
70547;SDS011;58099;43.406;3.698;2023-02-01T20:07:48;4.45;;;0.85;;
70547;SDS011;58099;43.406;3.698;2023-02-01T20:10:14;4.15;;;1.20;;
70547;SDS011;58099;43.406;3.698;2023-02-01T20:12:40;3.45;;;0.80;;
70547;SDS011;58099;43.406;3.698;2023-02-01T20:15:06;4.47;;;1.13;;
70547;SDS011;58099;43.406;3.698;2023-02-01T20:17:33;4.45;;;0.98;;
70547;SDS011;58099;43.406;3.698;2023-02-01T20:20:00;4.03;;;0.85;;
70547;SDS011;58099;43.406;3.698;2023-02-01T20:22:26;4.60;;;1.00;;
70547;SDS011;58099;43.406;3.698;2023-02-01T20:24:52;4.07;;;0.90;;
70547;SDS011;58099;43.406;3.698;2023-02-01T20:27:18;4.37;;;0.90;;
70547;SDS011;58099;43.406;3.698;2023-02-01T20:29:44;3.42;;;0.80;;
70547;SDS011;58099;43.406;3.698;2023-02-01T20:32:10;3.25;;;0.70;;
70547;SDS011;58099;43.406;3.698;2023-02-01T20:34:36;3.30;;;0.60;;
70547;SDS011;58099;43.406;3.698;2023-02-01T20:37:02;3.58;;;0.82;;
70547;SDS011;58099;43.406;3.698;2023-02-01T20:39:28;3.87;;;0.90;;
70547;SDS011;58099;43.406;3.698;2023-02-01T20:41:54;4.03;;;0.80;;
70547;SDS011;58099;43.406;3.698;2023-02-01T20:44:21;5.88;;;1.50;;
70547;SDS011;58099;43.406;3.698;2023-02-01T20:46:47;4.38;;;0.88;;
70547;SDS011;58099;43.406;3.698;2023-02-01T20:49:13;3.47;;;0.82;;
70547;SDS011;58099;43.406;3.698;2023-02-01T20:51:39;3.73;;;0.80;;
70547;SDS011;58099;43.406;3.698;2023-02-01T20:54:05;4.13;;;0.75;;
70547;SDS011;58099;43.406;3.698;2023-02-01T20:56:31;3.60;;;0.73;;
70547;SDS011;58099;43.406;3.698;2023-02-01T20:58:58;3.25;;;0.57;;
70547;SDS011;58099;43.406;3.698;2023-02-01T21:01:27;3.20;;;0.70;;
70547;SDS011;58099;43.406;3.698;2023-02-01T21:03:53;3.53;;;0.70;;
70547;SDS011;58099;43.406;3.698;2023-02-01T21:06:19;3.50;;;0.60;;
70547;SDS011;58099;43.406;3.698;2023-02-01T21:08:45;4.28;;;0.80;;
70547;SDS011;58099;43.406;3.698;2023-02-01T21:11:12;3.15;;;0.60;;
70547;SDS011;58099;43.406;3.698;2023-02-01T21:13:41;4.57;;;0.80;;
70547;SDS011;58099;43.406;3.698;2023-02-01T21:16:14;3.33;;;0.67;;
70547;SDS011;58099;43.406;3.698;2023-02-01T21:18:40;3.75;;;0.80;;
70547;SDS011;58099;43.406;3.698;2023-02-01T21:21:08;3.42;;;0.80;;
70547;SDS011;58099;43.406;3.698;2023-02-01T21:23:35;3.03;;;0.60;;
70547;SDS011;58099;43.406;3.698;2023-02-01T21:26:12;3.22;;;0.75;;
70547;SDS011;58099;43.406;3.698;2023-02-01T21:28:38;3.90;;;0.70;;
70547;SDS011;58099;43.406;3.698;2023-02-01T21:31:04;3.65;;;0.82;;
70547;SDS011;58099;43.406;3.698;2023-02-01T21:33:30;4.68;;;0.80;;
70547;SDS011;58099;43.406;3.698;2023-02-01T21:35:57;4.13;;;0.77;;
70547;SDS011;58099;43.406;3.698;2023-02-01T21:38:23;3.63;;;0.80;;
70547;SDS011;58099;43.406;3.698;2023-02-01T21:40:49;4.33;;;0.70;;
70547;SDS011;58099;43.406;3.698;2023-02-01T21:43:35;3.13;;;0.63;;
70547;SDS011;58099;43.406;3.698;2023-02-01T21:46:01;4.20;;;0.63;;
70547;SDS011;58099;43.406;3.698;2023-02-01T21:48:27;3.88;;;0.70;;
70547;SDS011;58099;43.406;3.698;2023-02-01T21:50:54;3.67;;;0.90;;
70547;SDS011;58099;43.406;3.698;2023-02-01T21:53:21;4.73;;;0.90;;
70547;SDS011;58099;43.406;3.698;2023-02-01T21:55:47;4.28;;;0.98;;
70547;SDS011;58099;43.406;3.698;2023-02-01T21:58:13;4.95;;;1.00;;
70547;SDS011;58099;43.406;3.698;2023-02-01T22:00:39;3.40;;;0.82;;
70547;SDS011;58099;43.406;3.698;2023-02-01T22:03:09;4.78;;;0.95;;
70547;SDS011;58099;43.406;3.698;2023-02-01T22:05:35;3.93;;;1.00;;
70547;SDS011;58099;43.406;3.698;2023-02-01T22:08:03;5.70;;;1.50;;
70547;SDS011;58099;43.406;3.698;2023-02-01T22:10:29;5.35;;;1.40;;
70547;SDS011;58099;43.406;3.698;2023-02-01T22:12:55;4.68;;;1.30;;
70547;SDS011;58099;43.406;3.698;2023-02-01T22:15:21;4.65;;;1.20;;
70547;SDS011;58099;43.406;3.698;2023-02-01T22:17:48;6.07;;;1.63;;
70547;SDS011;58099;43.406;3.698;2023-02-01T22:20:14;4.07;;;1.20;;
70547;SDS011;58099;43.406;3.698;2023-02-01T22:22:40;4.75;;;1.48;;
70547;SDS011;58099;43.406;3.698;2023-02-01T22:25:06;3.60;;;0.80;;
70547;SDS011;58099;43.406;3.698;2023-02-01T22:27:33;4.65;;;1.10;;
70547;SDS011;58099;43.406;3.698;2023-02-01T22:29:59;4.67;;;1.20;;
70547;SDS011;58099;43.406;3.698;2023-02-01T22:32:25;3.80;;;0.98;;
70547;SDS011;58099;43.406;3.698;2023-02-01T22:34:51;4.40;;;1.10;;
70547;SDS011;58099;43.406;3.698;2023-02-01T22:37:20;3.75;;;0.80;;
70547;SDS011;58099;43.406;3.698;2023-02-01T22:39:46;3.60;;;1.10;;